createdAt,value
2023-02-14T00:01:20.665Z,68.37
2023-02-14T00:03:49.560Z,67.97
2023-02-14T00:06:16.758Z,68.05
2023-02-14T00:08:44.920Z,68.34
2023-02-14T00:11:14.031Z,67.43
2023-02-14T00:14:01.435Z,67.97
2023-02-14T00:16:28.556Z,68.49
2023-02-14T00:19:04.511Z,68.09
2023-02-14T00:21:38.068Z,68.52
2023-02-14T00:24:12.056Z,67.82
2023-02-14T00:26:39.560Z,67.59
2023-02-14T00:29:24.098Z,67.57
2023-02-14T00:31:51.866Z,67.40
2023-02-14T00:34:19.812Z,67.55
2023-02-14T00:36:47.371Z,68.25
2023-02-14T00:39:17.415Z,68.00
2023-02-14T00:41:45.027Z,68.17
2023-02-14T00:44:13.944Z,67.71
2023-02-14T00:46:41.874Z,68.05
2023-02-14T00:49:09.519Z,68.07
2023-02-14T00:51:38.952Z,68.74
2023-02-14T00:54:06.264Z,68.45
2023-02-14T00:56:33.361Z,68.65
2023-02-14T00:59:02.485Z,68.18
2023-02-14T01:01:29.797Z,68.81
2023-02-14T01:03:59.054Z,68.78
2023-02-14T01:06:26.335Z,68.05
2023-02-14T01:08:53.507Z,68.57
2023-02-14T01:11:23.088Z,68.68
2023-02-14T01:13:52.296Z,68.92
2023-02-14T01:16:22.019Z,68.34
2023-02-14T01:18:49.937Z,68.14
2023-02-14T01:21:27.360Z,68.75
2023-02-14T01:24:00.586Z,68.76
2023-02-14T01:26:28.680Z,68.94
2023-02-14T01:28:57.134Z,68.58
2023-02-14T01:31:30.085Z,69.25
2023-02-14T01:33:58.944Z,69.33
2023-02-14T01:36:39.858Z,69.14
2023-02-14T01:39:14.048Z,69.09
2023-02-14T01:41:43.920Z,69.27
2023-02-14T01:44:19.414Z,68.75
2023-02-14T01:46:46.971Z,68.96
2023-02-14T01:49:20.436Z,69.11
2023-02-14T01:52:03.034Z,68.47
2023-02-14T01:54:34.797Z,68.90
2023-02-14T01:57:07.224Z,68.89
2023-02-14T01:59:41.311Z,68.97
2023-02-14T02:02:08.823Z,69.18
2023-02-14T02:04:41.662Z,68.68
2023-02-14T02:07:19.575Z,68.83
2023-02-14T02:09:53.481Z,69.15
2023-02-14T02:12:24.466Z,68.67
2023-02-14T02:14:56.065Z,68.30
2023-02-14T02:17:45.084Z,69.35
2023-02-14T02:20:49.083Z,69.19
2023-02-14T02:23:59.860Z,68.82
2023-02-14T02:26:57.611Z,69.23
2023-02-14T02:29:51.643Z,69.75
2023-02-14T02:32:54.419Z,69.04
2023-02-14T02:35:34.514Z,68.96
2023-02-14T02:38:45.687Z,69.41
2023-02-14T02:41:22.088Z,69.54
2023-02-14T02:44:41.962Z,69.69
2023-02-14T02:47:26.705Z,70.53
2023-02-14T02:50:32.905Z,70.52
2023-02-14T02:53:18.828Z,70.45
2023-02-14T02:56:45.034Z,70.79
2023-02-14T02:59:33.431Z,70.91
2023-02-14T03:02:22.214Z,70.56
2023-02-14T03:05:03.381Z,70.45
2023-02-14T03:07:37.254Z,71.30
2023-02-14T03:10:08.396Z,71.16
2023-02-14T03:12:35.407Z,71.95
2023-02-14T03:15:34.976Z,71.66
2023-02-14T03:18:59.759Z,72.96
2023-02-14T03:21:45.337Z,72.95
2023-02-14T03:24:47.561Z,73.83
2023-02-14T03:27:39.388Z,74.47
2023-02-14T03:30:25.107Z,74.29
2023-02-14T03:33:08.010Z,74.10
2023-02-14T03:36:06.138Z,74.81
2023-02-14T03:39:03.046Z,74.07
2023-02-14T03:41:37.798Z,74.30
2023-02-14T03:44:11.378Z,73.81
2023-02-14T03:46:50.426Z,74.19
2023-02-14T03:49:23.905Z,73.44
2023-02-14T03:51:55.066Z,73.67
2023-02-14T03:54:26.114Z,73.58
2023-02-14T03:57:05.369Z,72.96
2023-02-14T03:59:32.342Z,73.68
2023-02-14T04:02:36.038Z,73.89
2023-02-14T04:05:12.559Z,73.49
2023-02-14T04:08:05.623Z,73.21
2023-02-14T04:10:32.860Z,73.47
2023-02-14T04:12:59.956Z,73.04
2023-02-14T04:15:27.067Z,72.96
2023-02-14T04:18:12.754Z,72.29
2023-02-14T04:20:39.827Z,73.01
2023-02-14T04:23:07.051Z,72.43
2023-02-14T04:25:34.042Z,73.07
2023-02-14T04:28:01.091Z,72.67
2023-02-14T04:30:28.203Z,72.33
2023-02-14T04:32:55.276Z,72.29
2023-02-14T04:35:22.262Z,71.76
2023-02-14T04:37:52.111Z,72.32
2023-02-14T04:40:19.424Z,72.94
2023-02-14T04:42:46.995Z,72.61
2023-02-14T04:45:15.445Z,72.78
2023-02-14T04:47:42.732Z,72.46
2023-02-14T04:50:10.735Z,72.55
2023-02-14T04:52:38.269Z,72.79
2023-02-14T04:55:06.272Z,72.53
2023-02-14T04:57:33.561Z,72.41
2023-02-14T05:00:01.863Z,72.27
2023-02-14T05:02:29.025Z,72.67
2023-02-14T05:04:56.096Z,71.92
2023-02-14T05:07:23.055Z,71.93
2023-02-14T05:09:50.124Z,71.57
2023-02-14T05:12:17.245Z,71.81
2023-02-14T05:14:44.293Z,72.27
2023-02-14T05:17:11.651Z,71.61
2023-02-14T05:19:38.638Z,71.75
2023-02-14T05:22:05.672Z,71.61
2023-02-14T05:24:32.697Z,72.35
2023-02-14T05:26:59.867Z,71.96
2023-02-14T05:29:27.026Z,72.18
2023-02-14T05:31:54.717Z,71.83
2023-02-14T05:34:22.191Z,72.49
2023-02-14T05:36:49.209Z,72.38
2023-02-14T05:39:16.203Z,71.58
2023-02-14T05:41:43.264Z,72.11
2023-02-14T05:44:10.337Z,72.22
2023-02-14T05:46:37.863Z,71.84
2023-02-14T05:49:05.085Z,71.58
2023-02-14T05:51:32.344Z,71.63
2023-02-14T05:54:01.215Z,71.76
2023-02-14T05:56:28.538Z,71.43
2023-02-14T05:58:56.007Z,71.20
2023-02-14T06:01:23.447Z,72.06
2023-02-14T06:03:53.562Z,71.78
2023-02-14T06:06:20.834Z,71.41
2023-02-14T06:08:49.285Z,71.04
2023-02-14T06:11:16.337Z,71.39
2023-02-14T06:13:43.708Z,70.97
2023-02-14T06:16:11.535Z,71.73
2023-02-14T06:18:39.215Z,71.33
2023-02-14T06:21:07.554Z,71.72
2023-02-14T06:23:34.738Z,71.67
2023-02-14T06:26:01.982Z,71.37
2023-02-14T06:28:29.106Z,71.61
2023-02-14T06:30:56.539Z,71.76
2023-02-14T06:33:23.972Z,71.63
2023-02-14T06:35:54.551Z,71.65
2023-02-14T06:38:21.921Z,71.84
2023-02-14T06:40:49.026Z,71.72
2023-02-14T06:43:16.220Z,71.94
2023-02-14T06:45:43.911Z,71.82
2023-02-14T06:48:11.250Z,71.45
2023-02-14T06:50:38.594Z,71.40
2023-02-14T06:53:06.299Z,72.12
2023-02-14T06:55:33.418Z,72.06
2023-02-14T06:58:00.899Z,72.19
2023-02-14T07:00:28.343Z,72.54
2023-02-14T07:02:58.627Z,72.64
2023-02-14T07:05:25.826Z,72.06
2023-02-14T07:07:53.078Z,72.04
2023-02-14T07:10:20.511Z,72.15
2023-02-14T07:12:47.772Z,72.44
2023-02-14T07:15:15.158Z,72.42
2023-02-14T07:17:42.855Z,72.39
2023-02-14T07:20:14.269Z,72.86
2023-02-14T07:22:41.354Z,72.92
2023-02-14T07:25:08.851Z,72.92
2023-02-14T07:27:36.186Z,72.82
2023-02-14T07:30:05.812Z,72.90
2023-02-14T07:32:33.028Z,72.99
2023-02-14T07:35:00.414Z,73.32
2023-02-14T07:37:28.071Z,73.21
2023-02-14T07:39:55.533Z,73.27
2023-02-14T07:42:22.906Z,73.80
2023-02-14T07:44:49.964Z,74.41
2023-02-14T07:47:18.699Z,74.24
2023-02-14T07:49:45.883Z,74.69
2023-02-14T07:52:12.982Z,74.95
2023-02-14T07:54:42.133Z,75.60
2023-02-14T07:57:09.308Z,75.93
2023-02-14T07:59:36.582Z,76.07
2023-02-14T08:02:04.008Z,76.31
2023-02-14T08:04:33.747Z,76.87
2023-02-14T08:07:01.156Z,76.86
2023-02-14T08:09:28.183Z,77.61
2023-02-14T08:12:16.600Z,77.19
2023-02-14T08:14:44.929Z,77.43
2023-02-14T08:17:13.485Z,77.74
2023-02-14T08:19:41.421Z,78.29
2023-02-14T08:22:08.837Z,78.36
2023-02-14T08:24:35.998Z,77.69
2023-02-14T08:27:03.385Z,77.76
2023-02-14T08:29:30.746Z,77.48
2023-02-14T08:32:00.473Z,77.51
2023-02-14T08:34:27.666Z,77.51
2023-02-14T08:36:55.163Z,77.82
2023-02-14T08:39:22.488Z,77.53
2023-02-14T08:41:49.588Z,77.45
2023-02-14T08:44:16.692Z,78.29
2023-02-14T08:46:44.070Z,78.52
2023-02-14T08:49:13.023Z,77.75
2023-02-14T08:51:40.464Z,77.96
2023-02-14T08:54:07.931Z,77.58
2023-02-14T08:56:35.400Z,78.25
2023-02-14T08:59:02.842Z,77.17
2023-02-14T09:01:30.629Z,77.51
2023-02-14T09:03:58.489Z,76.93
2023-02-14T09:06:26.298Z,76.99
2023-02-14T09:08:57.534Z,77.74
2023-02-14T09:11:26.771Z,77.35
2023-02-14T09:13:55.012Z,76.80
2023-02-14T09:16:24.117Z,77.69
2023-02-14T09:18:53.309Z,76.72
2023-02-14T09:21:26.560Z,77.75
2023-02-14T09:23:54.818Z,76.64
2023-02-14T09:26:21.992Z,77.41
2023-02-14T09:28:49.011Z,77.26
2023-02-14T09:31:20.040Z,77.01
2023-02-14T09:34:08.024Z,76.97
2023-02-14T09:36:35.077Z,77.07
2023-02-14T09:39:02.417Z,76.59
2023-02-14T09:41:29.752Z,76.77
2023-02-14T09:44:17.382Z,76.46
2023-02-14T09:46:52.606Z,76.86
2023-02-14T09:49:34.739Z,76.30
2023-02-14T09:52:04.964Z,76.05
2023-02-14T09:54:35.323Z,75.66
2023-02-14T09:57:28.951Z,75.88
2023-02-14T10:00:25.309Z,75.83
2023-02-14T10:03:08.332Z,75.59
2023-02-14T10:05:57.425Z,75.83
2023-02-14T10:09:17.613Z,75.64
2023-02-14T10:11:46.939Z,74.65
2023-02-14T10:14:26.345Z,74.65
2023-02-14T10:17:22.654Z,75.02
2023-02-14T10:20:00.030Z,74.27
2023-02-14T10:23:02.330Z,74.29
2023-02-14T10:25:42.162Z,73.74
2023-02-14T10:28:16.787Z,74.21
2023-02-14T10:31:02.357Z,73.99
2023-02-14T10:33:33.887Z,73.59
2023-02-14T10:36:10.249Z,73.46
2023-02-14T10:39:04.051Z,72.40
2023-02-14T10:42:17.682Z,72.16
2023-02-14T10:45:00.260Z,71.50
2023-02-14T10:47:45.169Z,71.86
2023-02-14T10:50:38.895Z,71.60
2023-02-14T10:53:29.639Z,71.49
2023-02-14T10:59:26.679Z,71.56
2023-02-14T11:01:55.985Z,71.22
2023-02-14T11:04:25.403Z,70.13
2023-02-14T11:06:53.045Z,70.28
2023-02-14T11:09:21.004Z,69.98
2023-02-14T11:11:54.003Z,69.75
2023-02-14T11:14:32.763Z,69.38
2023-02-14T11:17:27.789Z,69.38
2023-02-14T11:20:27.923Z,68.91
2023-02-14T11:22:55.174Z,68.29
2023-02-14T11:25:29.174Z,67.47
2023-02-14T11:28:06.231Z,66.90
2023-02-14T11:30:45.673Z,66.13
2023-02-14T11:33:30.521Z,65.53
2023-02-14T11:35:58.336Z,64.75
2023-02-14T11:38:38.394Z,65.35
2023-02-14T11:41:10.751Z,65.01
2023-02-14T11:43:49.269Z,63.36
2023-02-14T11:46:28.253Z,63.04
2023-02-14T11:49:09.908Z,62.79
2023-02-14T11:51:43.490Z,62.94
2023-02-14T11:54:30.959Z,62.01
2023-02-14T11:57:12.154Z,61.91
2023-02-14T11:59:48.255Z,61.49
2023-02-14T12:02:39.744Z,60.23
2023-02-14T12:05:45.344Z,59.83
2023-02-14T12:08:12.604Z,60.12
2023-02-14T12:10:43.790Z,60.61
2023-02-14T12:13:10.780Z,59.91
2023-02-14T12:15:43.578Z,59.08
2023-02-14T12:18:35.059Z,58.15
2023-02-14T12:21:54.289Z,57.79
2023-02-14T12:24:36.768Z,58.55
2023-02-14T12:27:20.149Z,57.76
2023-02-14T12:30:18.369Z,57.28
2023-02-14T12:32:53.957Z,58.13
2023-02-14T12:36:02.899Z,57.07
2023-02-14T12:38:48.809Z,57.61
2023-02-14T12:41:40.624Z,57.14
2023-02-14T12:45:00.857Z,57.26
2023-02-14T12:47:55.495Z,56.63
2023-02-14T12:50:55.499Z,56.78
2023-02-14T12:53:42.514Z,56.42
2023-02-14T12:56:18.728Z,55.16
2023-02-14T12:59:12.858Z,55.25
2023-02-14T13:01:43.170Z,55.87
2023-02-14T13:04:53.271Z,56.28
2023-02-14T13:07:55.800Z,55.32
2023-02-14T13:11:04.787Z,54.61
2023-02-14T13:13:43.987Z,54.46
2023-02-14T13:16:48.329Z,54.44
2023-02-14T13:19:47.371Z,54.91
2023-02-14T13:22:20.383Z,53.38
2023-02-14T13:24:57.847Z,53.57
2023-02-14T13:27:30.214Z,53.77
2023-02-14T13:30:27.828Z,53.82
2023-02-14T13:33:01.271Z,53.35
2023-02-14T13:35:30.253Z,53.38
2023-02-14T13:38:13.225Z,53.08
2023-02-14T13:40:41.559Z,53.31
2023-02-14T13:43:08.867Z,52.90
2023-02-14T13:45:37.522Z,53.29
2023-02-14T13:48:18.618Z,52.95
2023-02-14T13:51:10.351Z,52.82
2023-02-14T13:53:51.506Z,52.03
2023-02-14T13:56:18.422Z,51.42
2023-02-14T13:58:52.365Z,52.03
2023-02-14T14:01:50.288Z,51.30
2023-02-14T14:04:26.816Z,52.18
2023-02-14T14:07:00.781Z,51.21
2023-02-14T14:09:43.766Z,52.30
2023-02-14T14:12:29.264Z,51.63
2023-02-14T14:15:08.288Z,51.96
2023-02-14T14:17:46.072Z,51.84
2023-02-14T14:20:16.268Z,52.44
2023-02-14T14:22:49.849Z,51.59
2023-02-14T14:25:39.140Z,51.92
2023-02-14T14:28:20.411Z,51.26
2023-02-14T14:30:48.207Z,51.31
2023-02-14T14:33:34.293Z,50.62
2023-02-14T14:36:07.945Z,51.34
2023-02-14T14:38:49.344Z,51.23
2023-02-14T14:41:17.406Z,50.50
2023-02-14T14:43:44.821Z,50.31
2023-02-14T14:46:14.629Z,50.76
2023-02-14T14:48:51.819Z,50.07
2023-02-14T14:51:36.041Z,50.42
2023-02-14T14:54:15.031Z,49.78
2023-02-14T14:56:56.805Z,50.08
2023-02-14T14:59:35.139Z,50.14
2023-02-14T15:02:04.344Z,49.36
2023-02-14T15:04:35.336Z,50.36
2023-02-14T15:07:33.250Z,49.77
2023-02-14T15:10:01.448Z,50.40
2023-02-14T15:13:02.415Z,50.34
2023-02-14T15:15:30.718Z,50.20
2023-02-14T15:17:58.017Z,50.59
2023-02-14T15:20:25.730Z,51.10
2023-02-14T15:22:53.979Z,50.78
2023-02-14T15:25:24.995Z,50.25
2023-02-14T15:27:52.590Z,50.77
2023-02-14T15:30:19.632Z,50.23
2023-02-14T15:32:49.516Z,50.38
2023-02-14T15:35:23.336Z,50.64
2023-02-14T15:37:51.001Z,51.03
2023-02-14T15:40:28.968Z,50.91
2023-02-14T15:42:57.521Z,51.05
2023-02-14T15:45:28.070Z,50.90
2023-02-14T15:48:03.668Z,50.22
2023-02-14T15:50:55.242Z,50.84
2023-02-14T15:53:34.719Z,50.71
2023-02-14T15:56:09.714Z,51.29
2023-02-14T15:58:38.986Z,50.57
2023-02-14T16:01:07.786Z,50.77
2023-02-14T16:03:40.504Z,51.47
2023-02-14T16:06:29.490Z,51.53
2023-02-14T16:08:59.389Z,51.61
2023-02-14T16:11:37.151Z,51.21
2023-02-14T16:14:32.363Z,51.07
2023-02-14T16:17:12.718Z,51.81
2023-02-14T16:19:45.858Z,51.80
2023-02-14T16:22:31.955Z,51.81
2023-02-14T16:24:59.899Z,51.51
2023-02-14T16:27:27.560Z,52.37
2023-02-14T16:29:54.839Z,52.00
2023-02-14T16:32:24.503Z,51.94
2023-02-14T16:34:51.926Z,52.90
2023-02-14T16:37:33.621Z,52.67
2023-02-14T16:40:02.402Z,52.97
2023-02-14T16:42:30.134Z,53.28
2023-02-14T16:44:58.338Z,53.91
2023-02-14T16:47:27.886Z,53.92
2023-02-14T16:49:55.289Z,53.95
2023-02-14T16:52:26.778Z,54.43
2023-02-14T16:54:54.055Z,54.62
2023-02-14T16:57:28.213Z,54.46
2023-02-14T16:59:57.060Z,54.46
2023-02-14T17:02:28.258Z,55.09
2023-02-14T17:04:56.032Z,55.42
2023-02-14T17:07:23.572Z,55.41
2023-02-14T17:09:57.116Z,55.24
2023-02-14T17:12:30.913Z,55.75
2023-02-14T17:15:06.050Z,55.79
2023-02-14T17:17:35.877Z,55.50
2023-02-14T17:20:06.301Z,55.65
2023-02-14T17:22:34.517Z,56.51
2023-02-14T17:25:01.521Z,56.78
2023-02-14T17:27:28.665Z,56.93
2023-02-14T17:29:55.694Z,56.79
2023-02-14T17:32:22.853Z,57.18
2023-02-14T17:34:49.872Z,56.50
2023-02-14T17:37:19.042Z,56.76
2023-02-14T17:39:46.187Z,57.08
2023-02-14T17:42:13.267Z,57.18
2023-02-14T17:44:40.441Z,56.81
2023-02-14T17:47:07.790Z,57.44
2023-02-14T17:49:35.027Z,57.55
2023-02-14T17:52:02.088Z,57.86
2023-02-14T17:54:29.102Z,58.05
2023-02-14T17:56:56.066Z,58.59
2023-02-14T17:59:24.352Z,58.08
2023-02-14T18:01:51.501Z,58.33
2023-02-14T18:04:19.072Z,58.21
2023-02-14T18:06:46.106Z,58.86
2023-02-14T18:09:14.206Z,58.38
2023-02-14T18:11:42.334Z,59.10
2023-02-14T18:14:09.728Z,59.07
2023-02-14T18:16:39.118Z,58.96
2023-02-14T18:19:08.614Z,59.02
2023-02-14T18:21:40.033Z,59.14
2023-02-14T18:24:08.430Z,59.92
2023-02-14T18:26:41.051Z,59.76
2023-02-14T18:29:08.916Z,59.72
2023-02-14T18:31:38.730Z,59.74
2023-02-14T18:34:06.219Z,60.09
2023-02-14T18:36:36.695Z,60.48
2023-02-14T18:39:06.093Z,60.68
2023-02-14T18:41:33.281Z,60.23
2023-02-14T18:44:04.209Z,60.69
2023-02-14T18:46:35.269Z,60.82
2023-02-14T18:49:06.066Z,60.80
2023-02-14T18:51:37.504Z,60.45
2023-02-14T18:54:05.277Z,60.70
2023-02-14T18:56:35.993Z,60.84
2023-02-14T18:59:07.651Z,60.90
2023-02-14T19:01:39.604Z,61.02
2023-02-14T19:04:12.100Z,61.31
2023-02-14T19:06:41.740Z,61.20
2023-02-14T19:09:16.226Z,61.38
2023-02-14T19:11:43.999Z,61.47
2023-02-14T19:14:12.957Z,61.13
2023-02-14T19:16:51.256Z,61.78
2023-02-14T19:19:18.593Z,61.75
2023-02-14T19:21:48.607Z,61.69
2023-02-14T19:24:17.408Z,61.52
2023-02-14T19:26:44.764Z,61.67
2023-02-14T19:29:17.937Z,61.66
2023-02-14T19:31:48.644Z,62.42
2023-02-14T19:34:17.215Z,62.42
2023-02-14T19:36:44.512Z,62.52
2023-02-14T19:39:12.674Z,62.80
2023-02-14T19:41:40.268Z,63.06
2023-02-14T19:44:10.059Z,63.07
2023-02-14T19:46:38.347Z,62.84
2023-02-14T19:49:05.854Z,63.02
2023-02-14T19:51:36.467Z,63.14
2023-02-14T19:54:07.183Z,63.30
2023-02-14T19:56:38.882Z,63.14
2023-02-14T19:59:10.034Z,63.27
2023-02-14T20:01:46.156Z,63.30
2023-02-14T20:04:18.218Z,63.39
2023-02-14T20:06:45.997Z,63.38
2023-02-14T20:09:14.172Z,63.34
2023-02-14T20:11:50.972Z,63.64
2023-02-14T20:14:26.500Z,63.50
2023-02-14T20:16:56.402Z,63.97
2023-02-14T20:19:27.901Z,64.30
2023-02-14T20:21:55.477Z,63.61
2023-02-14T20:24:27.400Z,64.00
2023-02-14T20:26:55.753Z,63.80
2023-02-14T20:29:24.773Z,63.72
2023-02-14T20:31:58.150Z,64.58
2023-02-14T20:34:26.658Z,63.95
2023-02-14T20:36:55.317Z,64.23
2023-02-14T20:39:28.538Z,64.50
2023-02-14T20:41:55.646Z,64.19
2023-02-14T20:44:22.970Z,64.47
2023-02-14T20:46:53.167Z,64.64
2023-02-14T20:49:22.166Z,64.26
2023-02-14T20:51:50.934Z,63.88
2023-02-14T20:54:24.026Z,64.04
2023-02-14T20:56:52.190Z,64.69
2023-02-14T20:59:26.933Z,64.33
2023-02-14T21:01:58.824Z,63.87
2023-02-14T21:04:26.897Z,64.33
2023-02-14T21:06:54.601Z,64.17
2023-02-14T21:09:21.708Z,64.39
2023-02-14T21:11:52.217Z,64.94
2023-02-14T21:14:20.883Z,64.88
2023-02-14T21:16:48.202Z,64.79
2023-02-14T21:19:15.401Z,64.08
2023-02-14T21:21:43.180Z,64.43
2023-02-14T21:24:16.840Z,64.20
2023-02-14T21:26:44.876Z,65.01
2023-02-14T21:29:12.101Z,64.15
2023-02-14T21:31:39.642Z,64.62
2023-02-14T21:34:06.826Z,64.75
2023-02-14T21:36:37.577Z,64.78
2023-02-14T21:39:06.632Z,64.50
2023-02-14T21:41:37.679Z,64.46
2023-02-14T21:44:06.829Z,64.06
2023-02-14T21:46:39.494Z,64.35
2023-02-14T21:49:25.767Z,64.60
2023-02-14T21:51:53.020Z,64.58
2023-02-14T21:54:27.072Z,65.23
2023-02-14T21:56:54.737Z,64.88
2023-02-14T21:59:22.109Z,64.15
2023-02-14T22:01:49.093Z,64.69
2023-02-14T22:04:16.298Z,64.46
2023-02-14T22:06:43.640Z,64.87
2023-02-14T22:09:13.887Z,64.87
2023-02-14T22:11:41.192Z,64.80
2023-02-14T22:14:08.529Z,64.71
2023-02-14T22:16:36.933Z,64.65
2023-02-14T22:19:05.714Z,64.26
2023-02-14T22:21:33.593Z,65.10
2023-02-14T22:24:01.341Z,64.75
2023-02-14T22:26:39.534Z,64.84
2023-02-14T22:29:09.964Z,65.52
2023-02-14T22:31:43.243Z,65.42
2023-02-14T22:34:14.087Z,64.90
2023-02-14T22:36:41.447Z,65.15
2023-02-14T22:39:09.513Z,64.98
2023-02-14T22:41:37.997Z,65.38
2023-02-14T22:44:06.187Z,65.35
2023-02-14T22:46:36.806Z,65.43
2023-02-14T22:49:05.502Z,65.53
2023-02-14T22:51:40.321Z,64.63
2023-02-14T22:54:15.005Z,65.37
2023-02-14T22:56:45.314Z,65.64
2023-02-14T22:59:28.332Z,66.24
2023-02-14T23:01:55.435Z,65.75
2023-02-14T23:04:24.992Z,66.28
2023-02-14T23:06:53.567Z,66.35
2023-02-14T23:09:20.694Z,65.68
2023-02-14T23:11:48.411Z,65.47
2023-02-14T23:14:35.703Z,65.53
2023-02-14T23:17:16.281Z,66.28
2023-02-14T23:20:03.536Z,65.87
2023-02-14T23:22:38.665Z,65.60
2023-02-14T23:25:10.698Z,65.57
2023-02-14T23:27:41.662Z,66.30
2023-02-14T23:30:15.335Z,66.57
2023-02-14T23:32:42.835Z,65.61
2023-02-14T23:35:10.390Z,65.83
2023-02-14T23:37:38.447Z,66.18
2023-02-14T23:40:07.013Z,65.08
2023-02-14T23:42:34.042Z,65.99
2023-02-14T23:45:21.208Z,66.09
2023-02-14T23:47:49.349Z,66.07
2023-02-14T23:50:16.889Z,66.09
2023-02-14T23:52:44.708Z,65.98
2023-02-14T23:55:12.902Z,65.84
2023-02-14T23:57:40.089Z,66.81
